Aviation Digital Data Service (ADDS)

Output produced by METARs form (0209 UTC 29 July 2016)
found at http://aviationweather.gov/adds/metars/
 
KPNE 282342Z 2900/2924 15004KT P6SM FEW045 FEW080 BKN110 
     TEMPO 2902/2904 4SM RA BKN035 
     FM290400 06007KT 5SM RA BR OVC025 
     TEMPO 2907/2911 1SM +TSRA OVC009CB 
     FM291300 03011KT P6SM VCSH OVC015 
     TEMPO 2913/2915 4SM -SHRA 
     FM291500 36011G18KT P6SM BKN040